Time;durP1;ratioP1;P1;durP2;ratioP2;P2;SDS_P1;SDS_P2;PMS_P1;PMS_P2;Temp;Humidity;BMP_temperature;BMP_pressure;BME280_temperature;BME280_humidity;BME280_pressure;Samples;Min_cycle;Max_cycle;Signal;HPM_P1;HPM_P2
2021/06/14 00:00:53;;;;;;;8.63;5.97;;;11.20;99.90;;;;;;5074230;28;20074;-74
2021/06/14 00:03:20;;;;;;;9.07;6.28;;;11.20;99.90;;;;;;5074103;28;20139;-74
2021/06/14 00:05:50;;;;;;;7.15;5.38;;;11.20;99.90;;;;;;5074015;28;20079;-76
2021/06/14 00:08:19;;;;;;;8.10;5.35;;;11.10;99.90;;;;;;5074368;28;20040;-76
2021/06/14 00:10:48;;;;;;;6.22;5.45;;;11.00;99.90;;;;;;5073547;28;20040;-74
2021/06/14 00:13:16;;;;;;;11.95;7.25;;;11.00;99.90;;;;;;5074001;28;20076;-76
2021/06/14 00:15:44;;;;;;;9.70;6.00;;;10.80;99.90;;;;;;5073933;28;20068;-74
2021/06/14 00:20:56;;;;;;;8.38;6.22;;;10.40;99.90;;;;;;5073407;28;20075;-75
2021/06/14 00:26:13;;;;;;;8.85;5.97;;;10.30;99.90;;;;;;5073198;28;20135;-75
2021/06/14 00:28:51;;;;;;;8.75;5.60;;;10.40;99.90;;;;;;5073539;28;20048;-76
2021/06/14 00:31:17;;;;;;;8.48;5.75;;;10.50;99.90;;;;;;5073933;28;20052;-75
2021/06/14 00:33:44;;;;;;;6.00;5.38;;;10.70;99.90;;;;;;5074055;28;20048;-75
2021/06/14 00:36:12;;;;;;;9.68;5.85;;;10.70;99.90;;;;;;5073421;28;20048;-75
2021/06/14 00:38:39;;;;;;;9.65;6.20;;;10.70;99.90;;;;;;5072626;28;20045;-76
2021/06/14 00:41:08;;;;;;;7.68;5.65;;;10.70;99.90;;;;;;5073249;28;20121;-76
2021/06/14 00:43:36;;;;;;;7.07;5.72;;;10.60;99.90;;;;;;5073799;28;20064;-74
2021/06/14 00:46:03;;;;;;;8.80;5.72;;;10.50;99.90;;;;;;5073061;28;20500;-75
2021/06/14 00:48:30;;;;;;;10.35;6.30;;;10.40;99.90;;;;;;5073709;28;20087;-75
2021/06/14 00:50:58;;;;;;;9.50;5.68;;;10.40;99.90;;;;;;5072703;28;20129;-75
2021/06/14 00:53:31;;;;;;;6.80;6.13;;;10.50;99.90;;;;;;5073428;28;20088;-75
2021/06/14 00:55:59;;;;;;;8.15;5.53;;;10.50;99.90;;;;;;5072824;28;20550;-75
2021/06/14 00:58:37;;;;;;;10.20;6.82;;;10.60;99.90;;;;;;5072831;28;20044;-75
2021/06/14 01:01:06;;;;;;;14.55;6.22;;;10.70;99.90;;;;;;5072892;28;20515;-75
2021/06/14 01:03:32;;;;;;;12.68;7.78;;;10.60;99.90;;;;;;5053177;28;20488;-75
2021/06/14 01:06:01;;;;;;;9.50;6.93;;;10.60;99.90;;;;;;5052983;28;20076;-74
2021/06/14 01:08:32;;;;;;;9.52;6.88;;;10.60;99.90;;;;;;5065373;28;20488;-75
2021/06/14 01:11:02;;;;;;;8.47;6.47;;;10.50;99.90;;;;;;5072599;28;20480;-75
2021/06/14 01:13:36;;;;;;;9.63;7.00;;;10.50;99.90;;;;;;5073010;28;20330;-74
2021/06/14 01:16:11;;;;;;;12.30;6.50;;;10.60;99.90;;;;;;5063710;28;20118;-75
2021/06/14 01:18:47;;;;;;;7.30;5.55;;;10.60;99.90;;;;;;5055475;28;20075;-75
2021/06/14 01:21:19;;;;;;;9.13;5.32;;;10.50;99.90;;;;;;5073140;28;20072;-75
2021/06/14 01:24:15;;;;;;;9.13;5.97;;;10.50;99.90;;;;;;5072701;28;20072;-75
2021/06/14 01:26:47;;;;;;;10.43;6.13;;;10.40;99.90;;;;;;5072609;28;20072;-75
2021/06/14 01:29:25;;;;;;;8.43;6.28;;;10.40;99.90;;;;;;5072779;28;20052;-75
2021/06/14 01:31:55;;;;;;;10.25;6.35;;;10.30;99.90;;;;;;5072522;28;20071;-75
2021/06/14 01:34:24;;;;;;;9.52;6.28;;;10.30;99.90;;;;;;5072856;28;20182;-75
2021/06/14 01:36:52;;;;;;;12.43;6.35;;;10.40;99.90;;;;;;5072255;28;20048;-75
2021/06/14 01:39:18;;;;;;;9.90;6.03;;;10.40;99.90;;;;;;5066389;28;20500;-75
2021/06/14 01:41:47;;;;;;;7.43;6.25;;;10.30;99.90;;;;;;5069713;28;20083;-76
2021/06/14 01:44:16;;;;;;;9.40;7.20;;;10.20;99.90;;;;;;5072888;28;20098;-74
2021/06/14 01:46:43;;;;;;;10.30;7.88;;;10.20;99.90;;;;;;5071412;28;20451;-74
2021/06/14 01:49:11;;;;;;;10.00;6.53;;;10.10;99.90;;;;;;5072153;28;20098;-74
2021/06/14 01:51:40;;;;;;;11.77;6.68;;;9.90;99.90;;;;;;5052475;28;20091;-75
2021/06/14 01:54:12;;;;;;;7.63;6.05;;;9.90;99.90;;;;;;5053910;28;20143;-75
2021/06/14 01:56:43;;;;;;;8.95;6.63;;;9.80;99.90;;;;;;5067778;28;20072;-75
2021/06/14 01:59:14;;;;;;;7.40;5.80;;;9.80;99.90;;;;;;5072636;28;20476;-75
2021/06/14 02:01:43;;;;;;;9.27;5.97;;;9.70;99.90;;;;;;5071948;28;20041;-75
2021/06/14 02:04:10;;;;;;;10.13;6.72;;;9.70;99.90;;;;;;5071348;28;20068;-75
2021/06/14 02:06:40;;;;;;;8.45;6.70;;;9.60;99.90;;;;;;5067885;28;20066;-74
2021/06/14 02:09:09;;;;;;;8.48;7.38;;;9.70;99.90;;;;;;5072232;28;20053;-75
2021/06/14 02:11:37;;;;;;;8.68;6.05;;;9.70;99.90;;;;;;5072048;28;20074;-77
2021/06/14 02:14:03;;;;;;;10.15;6.05;;;9.90;99.90;;;;;;5071836;28;20060;-75
2021/06/14 02:16:32;;;;;;;8.35;5.57;;;10.00;99.90;;;;;;5071799;28;20084;-76
2021/06/14 02:19:00;;;;;;;8.85;6.00;;;10.00;99.90;;;;;;5072021;28;20090;-75
2021/06/14 02:21:26;;;;;;;8.85;5.47;;;9.80;99.90;;;;;;5062590;28;20092;-75
2021/06/14 02:23:53;;;;;;;8.20;5.68;;;9.70;99.90;;;;;;5054980;28;20072;-75
2021/06/14 02:26:20;;;;;;;8.38;6.22;;;9.60;99.90;;;;;;5071965;28;20087;-75
2021/06/14 02:28:46;;;;;;;8.32;6.82;;;9.50;99.90;;;;;;5071740;28;20037;-75
2021/06/14 02:31:14;;;;;;;9.25;5.45;;;9.30;99.90;;;;;;5072042;28;20049;-75
2021/06/14 02:33:41;;;;;;;8.50;6.00;;;9.20;99.90;;;;;;5072079;28;20064;-75
2021/06/14 02:36:09;;;;;;;7.55;5.85;;;9.10;99.90;;;;;;5071330;28;20488;-75
2021/06/14 02:38:36;;;;;;;7.57;6.47;;;9.00;99.90;;;;;;5071908;28;20075;-75
2021/06/14 02:41:04;;;;;;;9.65;5.45;;;9.00;99.90;;;;;;5071111;28;20528;-76
2021/06/14 02:43:31;;;;;;;11.57;6.07;;;9.10;99.90;;;;;;5071918;28;20080;-75
2021/06/14 02:45:58;;;;;;;10.88;5.72;;;9.30;99.90;;;;;;5071482;28;20102;-75
2021/06/14 02:48:25;;;;;;;9.38;5.75;;;9.40;99.90;;;;;;5071143;28;20496;-75
2021/06/14 02:50:52;;;;;;;10.02;6.38;;;9.40;99.90;;;;;;5071345;28;20041;-75
2021/06/14 02:53:24;;;;;;;7.03;5.55;;;9.30;99.90;;;;;;5071579;28;20492;-75
2021/06/14 02:55:53;;;;;;;;;;;9.20;99.90;;;;;;5064939;28;20492;-75
2021/06/14 02:58:25;;;;;;;11.55;5.90;;;9.10;99.90;;;;;;5071741;28;19920;-74
2021/06/14 03:00:51;;;;;;;;;;;9.00;99.90;;;;;;5073655;28;20076;-75
2021/06/14 03:03:18;;;;;;;11.02;6.60;;;8.90;99.90;;;;;;5075449;28;20012;-75
2021/06/14 03:05:45;;;;;;;8.43;6.93;;;8.90;99.90;;;;;;5075665;28;20117;-76
2021/06/14 03:08:12;;;;;;;13.57;7.30;;;8.90;99.90;;;;;;5076211;28;20090;-75
2021/06/14 03:10:40;;;;;;;10.13;7.30;;;9.10;99.90;;;;;;5075682;28;20091;-75
2021/06/14 03:13:07;;;;;;;9.48;5.80;;;9.20;99.90;;;;;;5075278;28;20075;-76
2021/06/14 03:15:35;;;;;;;8.35;6.07;;;9.40;99.90;;;;;;5074774;28;20676;-74
2021/06/14 03:18:03;;;;;;;9.57;5.80;;;9.20;99.90;;;;;;5074612;28;20072;-75
2021/06/14 03:20:31;;;;;;;8.88;5.90;;;9.10;99.90;;;;;;5074930;28;20530;-75
2021/06/14 03:22:58;;;;;;;13.25;6.95;;;9.10;99.90;;;;;;5074860;28;20471;-75
2021/06/14 03:25:25;;;;;;;7.78;6.38;;;9.10;99.90;;;;;;5074671;28;20072;-75
2021/06/14 03:27:53;;;;;;;10.10;6.60;;;9.10;99.90;;;;;;5074702;28;20064;-75
2021/06/14 03:30:22;;;;;;;10.82;7.28;;;9.20;99.90;;;;;;5075333;28;20442;-75
2021/06/14 03:32:49;;;;;;;11.95;6.72;;;9.30;99.90;;;;;;5067473;28;20110;-75
2021/06/14 03:35:19;;;;;;;8.32;6.22;;;9.50;99.90;;;;;;5075170;28;20037;-74
2021/06/14 03:37:46;;;;;;;11.63;6.70;;;9.50;99.90;;;;;;5074244;28;20109;-73
2021/06/14 03:40:15;;;;;;;9.40;6.80;;;9.50;99.90;;;;;;5069407;28;20045;-70
2021/06/14 03:42:42;;;;;;;15.57;7.68;;;9.40;99.90;;;;;;5069693;28;20134;-74
2021/06/14 03:45:12;;;;;;;49.30;25.10;;;9.40;99.90;;;;;;5069529;28;20076;-74
2021/06/14 03:47:39;;;;;;;61.78;33.95;;;9.60;99.90;;;;;;5061382;28;20095;-74
2021/06/14 03:50:08;;;;;;;30.35;17.15;;;9.90;99.90;;;;;;5071914;28;20045;-75
2021/06/14 03:52:35;;;;;;;21.20;12.88;;;10.20;99.90;;;;;;5073924;28;20492;-74
2021/06/14 03:55:01;;;;;;;12.00;7.43;;;10.40;99.90;;;;;;5073412;28;20102;-73
2021/06/14 03:57:28;;;;;;;21.15;11.65;;;10.60;99.90;;;;;;5067656;28;20446;-70
2021/06/14 03:59:54;;;;;;;19.35;10.88;;;10.70;99.90;;;;;;5072914;28;20083;-70
2021/06/14 04:02:22;;;;;;;24.75;16.15;;;10.70;99.90;;;;;;5070089;28;20056;-72
2021/06/14 04:04:51;;;;;;;20.40;11.63;;;10.50;99.90;;;;;;5059985;28;20397;-72
2021/06/14 04:07:18;;;;;;;12.10;9.38;;;10.80;99.90;;;;;;5054619;28;20076;-70
2021/06/14 04:09:44;;;;;;;27.35;15.57;;;11.00;99.90;;;;;;5069001;28;20070;-71
2021/06/14 04:12:12;;;;;;;17.35;9.27;;;11.20;99.90;;;;;;5082795;28;20048;-73
2021/06/14 04:14:40;;;;;;;13.02;7.40;;;11.30;99.90;;;;;;5074072;28;20550;-77
2021/06/14 04:17:07;;;;;;;16.33;11.68;;;11.20;99.90;;;;;;5076997;28;20056;-71
2021/06/14 04:19:35;;;;;;;15.45;9.40;;;11.30;99.90;;;;;;5078304;28;20067;-71
2021/06/14 04:22:01;;;;;;;10.73;7.57;;;11.30;99.90;;;;;;5068156;28;20122;-70
2021/06/14 04:24:28;;;;;;;11.70;7.63;;;11.40;99.90;;;;;;5057970;28;20084;-69
2021/06/14 04:26:54;;;;;;;15.70;10.00;;;11.50;99.90;;;;;;5082120;28;20047;-70
2021/06/14 04:29:21;;;;;;;14.40;7.47;;;11.60;99.90;;;;;;5076707;28;20049;-72
2021/06/14 04:31:48;;;;;;;12.20;8.38;;;11.80;99.90;;;;;;5063375;28;20098;-71
2021/06/14 04:34:14;;;;;;;9.77;7.80;;;11.90;99.90;;;;;;5064708;28;20045;-75
2021/06/14 04:36:42;;;;;;;12.40;7.90;;;12.20;99.90;;;;;;5088074;28;20062;-76
2021/06/14 04:39:11;;;;;;;11.85;7.80;;;12.30;99.90;;;;;;5092182;28;20052;-74
2021/06/14 04:41:50;;;;;;;42.75;23.33;;;12.50;99.90;;;;;;5085433;28;20076;-76
2021/06/14 04:44:17;;;;;;;38.85;23.80;;;12.70;99.90;;;;;;5066157;28;20053;-71
2021/06/14 04:46:44;;;;;;;12.50;7.90;;;12.80;99.90;;;;;;5037429;28;20048;-73
2021/06/14 04:49:10;;;;;;;21.63;12.80;;;12.90;99.90;;;;;;5083297;28;20045;-73
2021/06/14 04:51:37;;;;;;;15.45;11.15;;;13.00;99.90;;;;;;5075715;28;20049;-74
2021/06/14 04:54:06;;;;;;;15.82;9.73;;;13.20;99.90;;;;;;5080821;28;20107;-74
2021/06/14 04:56:32;;;;;;;11.05;6.93;;;13.40;99.90;;;;;;5072186;28;20041;-71
2021/06/14 04:58:59;;;;;;;11.32;8.73;;;13.50;99.90;;;;;;5075656;28;20040;-74
2021/06/14 05:01:25;;;;;;;12.27;7.50;;;13.60;99.90;;;;;;5018483;28;20056;-71
2021/06/14 05:03:54;;;;;;;9.35;7.05;;;13.70;99.90;;;;;;5077346;28;20072;-73
2021/06/14 05:06:20;;;;;;;13.25;9.48;;;13.80;99.90;;;;;;5055035;28;20049;-74
2021/06/14 05:08:47;;;;;;;21.30;13.95;;;14.00;99.90;;;;;;5068850;28;20049;-72
2021/06/14 05:11:15;;;;;;;11.63;7.20;;;14.10;99.90;;;;;;5071570;28;20060;-74
2021/06/14 05:13:41;;;;;;;13.15;7.30;;;14.30;99.90;;;;;;5053339;28;20037;-74
2021/06/14 05:16:08;;;;;;;10.52;7.13;;;14.50;99.90;;;;;;5058076;28;20118;-74
2021/06/14 05:18:34;;;;;;;9.13;5.60;;;14.60;99.90;;;;;;5059168;28;20416;-72
2021/06/14 05:21:02;;;;;;;10.82;6.93;;;14.70;99.90;;;;;;5067335;28;20051;-73
2021/06/14 05:23:28;;;;;;;30.73;16.13;;;14.90;99.90;;;;;;5054059;28;20139;-73
2021/06/14 05:25:55;;;;;;;12.38;6.82;;;15.10;99.90;;;;;;5053962;28;20068;-72
2021/06/14 05:28:23;;;;;;;6.13;4.32;;;15.20;99.90;;;;;;5052702;28;20420;-71
2021/06/14 05:30:49;;;;;;;8.75;5.70;;;15.30;99.90;;;;;;5052874;28;20485;-70
2021/06/14 05:33:16;;;;;;;10.18;6.20;;;15.40;99.90;;;;;;5053139;28;20072;-72
2021/06/14 05:35:42;;;;;;;9.77;4.95;;;15.50;99.90;;;;;;5072145;28;20064;-71
2021/06/14 05:38:11;;;;;;;9.57;4.57;;;15.60;99.90;;;;;;5072944;28;20049;-73
2021/06/14 05:40:37;;;;;;;11.50;5.47;;;15.70;99.90;;;;;;5072204;28;20059;-72
2021/06/14 05:43:04;;;;;;;8.18;4.70;;;15.80;99.90;;;;;;5074448;28;20124;-73
2021/06/14 05:45:32;;;;;;;5.60;4.82;;;15.80;99.90;;;;;;5071948;28;20472;-72
2021/06/14 05:47:59;;;;;;;6.45;4.65;;;15.90;99.90;;;;;;5060617;28;20510;-72
2021/06/14 05:50:25;;;;;;;6.18;4.85;;;16.00;99.90;;;;;;5052373;28;20362;-73
2021/06/14 05:52:52;;;;;;;8.35;4.93;;;16.00;99.90;;;;;;5053289;28;20501;-73
2021/06/14 05:55:19;;;;;;;7.35;4.55;;;16.20;99.90;;;;;;5053291;28;20067;-72
2021/06/14 05:57:45;;;;;;;7.72;4.97;;;16.30;99.90;;;;;;5070098;28;20508;-72
2021/06/14 06:00:12;;;;;;;9.35;5.13;;;16.50;99.90;;;;;;5073725;28;20037;-74
2021/06/14 06:02:40;;;;;;;7.40;4.07;;;16.80;99.90;;;;;;5040878;28;20079;-71
2021/06/14 06:05:08;;;;;;;7.10;5.18;;;17.00;99.90;;;;;;5052937;28;20072;-72
2021/06/14 06:07:35;;;;;;;5.07;3.65;;;17.10;99.90;;;;;;5053199;28;20067;-72
2021/06/14 06:10:02;;;;;;;10.32;5.72;;;16.90;99.90;;;;;;5054268;28;20559;-74
2021/06/14 06:12:30;;;;;;;8.48;4.32;;;17.30;99.90;;;;;;5056703;28;20041;-74
2021/06/14 06:14:57;;;;;;;6.07;3.72;;;17.60;99.90;;;;;;5065962;28;20073;-74
2021/06/14 06:17:23;;;;;;;4.50;3.33;;;18.00;99.90;;;;;;5059071;28;20048;-74
2021/06/14 06:19:56;;;;;;;10.15;4.38;;;18.00;99.90;;;;;;5071200;28;20044;-74
2021/06/14 06:22:22;;;;;;;8.30;4.03;;;18.30;99.90;;;;;;5078682;28;20066;-73
2021/06/14 06:24:49;;;;;;;8.25;4.22;;;18.30;99.90;;;;;;5076624;28;20053;-75
2021/06/14 06:27:16;;;;;;;10.80;4.07;;;18.70;99.90;;;;;;5075615;28;20052;-74
2021/06/14 06:29:43;;;;;;;7.25;3.90;;;19.00;99.90;;;;;;5075704;28;20044;-75
2021/06/14 06:32:10;;;;;;;7.43;4.72;;;19.30;99.90;;;;;;5083117;28;20048;-75
2021/06/14 06:34:38;;;;;;;5.20;3.90;;;19.40;99.90;;;;;;5075443;28;20040;-75
2021/06/14 06:40:03;;;;;;;5.82;4.05;;;20.10;99.90;;;;;;5082308;28;20048;-74
2021/06/14 06:42:29;;;;;;;12.07;5.30;;;20.10;99.40;;;;;;5082097;28;20068;-76
2021/06/14 06:44:56;;;;;;;9.93;5.68;;;20.70;99.00;;;;;;5083473;28;20040;-75
2021/06/14 06:47:23;;;;;;;9.20;5.00;;;21.10;97.00;;;;;;5077591;28;20098;-74
2021/06/14 06:49:54;;;;;;;6.68;3.83;;;21.60;96.00;;;;;;5084508;28;20044;-75
2021/06/14 06:52:24;;;;;;;8.15;4.50;;;21.70;94.60;;;;;;5064036;28;20102;-76
2021/06/14 06:55:02;;;;;;;4.80;3.58;;;21.50;92.70;;;;;;5058681;28;20463;-74
2021/06/14 06:57:29;;;;;;;9.93;4.57;;;21.50;92.00;;;;;;5069271;28;20080;-77
2021/06/14 06:59:56;;;;;;;6.18;3.78;;;21.60;90.90;;;;;;5075875;28;20075;-75
2021/06/14 07:02:22;;;;;;;3.95;2.88;;;21.20;91.00;;;;;;5076452;28;20197;-77
2021/06/14 07:04:56;;;;;;;7.00;3.47;;;21.50;90.10;;;;;;5011376;28;20045;-77
2021/06/14 07:07:43;;;;;;;6.72;3.50;;;21.70;89.10;;;;;;5071263;28;20056;-77
2021/06/14 07:12:52;;;;;;;7.63;3.88;;;22.50;85.60;;;;;;5060416;28;20131;-75
2021/06/14 07:15:19;;;;;;;7.70;3.97;;;22.60;83.40;;;;;;5075663;28;20076;-76
2021/06/14 07:18:03;;;;;;;5.63;3.47;;;23.00;81.70;;;;;;5060499;28;20041;-74
2021/06/14 07:20:30;;;;;;;7.03;2.92;;;23.10;79.70;;;;;;5054797;28;20072;-73
2021/06/14 07:22:58;;;;;;;5.18;3.00;;;23.30;77.40;;;;;;5067387;28;20449;-74
2021/06/14 07:25:25;;;;;;;7.80;3.60;;;23.00;75.80;;;;;;5072346;28;20075;-71
2021/06/14 07:27:52;;;;;;;5.68;2.60;;;23.20;76.80;;;;;;5075009;28;20055;-71
2021/06/14 07:30:19;;;;;;;7.13;3.83;;;23.20;76.80;;;;;;5073472;28;20049;-72
2021/06/14 07:32:46;;;;;;;7.93;5.07;;;23.60;75.80;;;;;;5074613;28;20492;-74
2021/06/14 07:35:13;;;;;;;5.28;3.25;;;23.60;76.30;;;;;;5074986;28;20369;-72
2021/06/14 07:37:40;;;;;;;4.97;2.80;;;23.60;74.90;;;;;;5074726;28;20050;-75
2021/06/14 07:40:09;;;;;;;4.28;2.97;;;23.60;74.80;;;;;;5074744;28;20068;-75
2021/06/14 07:42:36;;;;;;;4.85;3.15;;;23.70;72.50;;;;;;5074735;28;20461;-75
2021/06/14 07:45:02;;;;;;;7.70;2.85;;;24.20;73.00;;;;;;5074850;28;20496;-76
2021/06/14 07:47:29;;;;;;;9.60;3.17;;;23.60;72.50;;;;;;5075734;28;20071;-74
2021/06/14 07:49:55;;;;;;;6.25;3.15;;;23.40;72.60;;;;;;5075417;28;20076;-77
2021/06/14 07:52:22;;;;;;;3.47;2.15;;;23.90;73.50;;;;;;5077052;28;20098;-82
2021/06/14 07:54:49;;;;;;;7.85;2.97;;;23.90;72.70;;;;;;5077534;28;20052;-75
2021/06/14 07:57:17;;;;;;;3.08;2.45;;;24.90;68.70;;;;;;5075682;28;20045;-75
2021/06/14 07:59:43;;;;;;;7.07;3.92;;;24.30;68.70;;;;;;5074203;28;20041;-74
2021/06/14 08:02:10;;;;;;;5.35;3.17;;;24.40;68.20;;;;;;5074773;28;20044;-75
2021/06/14 08:04:37;;;;;;;3.38;3.08;;;23.80;68.70;;;;;;5063943;28;20139;-77
2021/06/14 08:07:04;;;;;;;5.05;3.53;;;24.40;68.50;;;;;;5054147;28;20090;-75
2021/06/14 08:09:31;;;;;;;5.20;3.08;;;23.80;69.00;;;;;;5054643;28;20072;-75
2021/06/14 08:11:59;;;;;;;5.05;2.85;;;23.80;69.40;;;;;;5056101;28;20045;-78
2021/06/14 08:14:27;;;;;;;3.47;2.13;;;24.00;69.30;;;;;;5067395;28;20076;-78
2021/06/14 08:16:54;;;;;;;3.00;2.05;;;23.90;69.20;;;;;;5053627;28;20083;-76
2021/06/14 08:19:32;;;;;;;5.50;3.15;;;24.50;67.10;;;;;;5054516;28;20053;-73
2021/06/14 08:22:29;;;;;;;4.88;2.90;;;24.50;66.70;;;;;;5054190;28;20088;-73
2021/06/14 08:25:04;;;;;;;8.10;3.38;;;24.60;66.80;;;;;;5054179;28;20132;-73
2021/06/14 08:27:33;;;;;;;7.32;3.00;;;24.80;66.30;;;;;;5068073;28;20051;-73
2021/06/14 08:30:01;;;;;;;6.97;2.65;;;25.10;67.20;;;;;;5073865;28;20492;-77
2021/06/14 08:32:28;;;;;;;5.32;2.30;;;25.30;64.40;;;;;;5076924;28;20041;-77
2021/06/14 08:34:55;;;;;;;5.35;2.55;;;25.40;63.50;;;;;;5073832;28;20048;-72
2021/06/14 08:37:21;;;;;;;4.68;2.88;;;24.90;64.20;;;;;;5068891;28;20075;-70
2021/06/14 08:39:48;;;;;;;5.07;2.75;;;24.90;64.00;;;;;;5067286;28;20037;-70
2021/06/14 08:42:15;;;;;;;4.13;2.30;;;25.30;62.70;;;;;;5056593;28;20071;-71
2021/06/14 08:44:42;;;;;;;6.82;3.25;;;24.90;62.60;;;;;;5073866;28;20076;-73
2021/06/14 08:50:26;;;;;;;5.65;2.72;;;25.40;62.00;;;;;;5074484;28;20097;-72
2021/06/14 08:53:08;;;;;;;6.35;3.40;;;25.40;62.30;;;;;;5075701;28;20098;-73
2021/06/14 08:55:35;;;;;;;5.43;3.38;;;25.70;61.40;;;;;;5073751;28;20559;-72
2021/06/14 08:58:02;;;;;;;11.35;5.65;;;25.80;60.20;;;;;;5077211;28;20044;-73
2021/06/14 09:00:30;;;;;;;6.18;3.20;;;26.00;59.80;;;;;;5073965;28;20075;-72
2021/06/14 09:02:57;;;;;;;7.72;4.03;;;26.20;59.20;;;;;;5074383;28;20052;-73
2021/06/14 09:05:26;;;;;;;4.80;3.90;;;26.60;58.90;;;;;;5052146;28;20056;-73
2021/06/14 09:07:55;;;;;;;5.32;3.67;;;27.50;57.00;;;;;;5046526;28;20098;-74
2021/06/14 09:10:28;;;;;;;8.90;4.30;;;27.10;56.10;;;;;;5072762;28;20072;-73
2021/06/14 09:12:55;;;;;;;5.00;3.20;;;27.60;56.30;;;;;;5062570;28;20040;-72
2021/06/14 09:15:27;;;;;;;6.28;3.38;;;26.50;57.60;;;;;;5073405;28;20078;-72
2021/06/14 09:17:55;;;;;;;3.42;2.53;;;27.10;57.40;;;;;;5073233;28;20056;-72
2021/06/14 09:20:23;;;;;;;4.28;3.08;;;27.00;57.10;;;;;;5073114;28;20051;-73
2021/06/14 09:22:51;;;;;;;5.55;2.70;;;27.20;55.80;;;;;;5072246;28;20462;-74
2021/06/14 09:25:19;;;;;;;4.75;3.03;;;27.00;56.10;;;;;;5053032;28;20493;-72
2021/06/14 09:27:47;;;;;;;4.22;2.75;;;26.40;56.40;;;;;;5053470;28;20041;-74
2021/06/14 09:30:17;;;;;;;8.05;4.20;;;26.60;57.00;;;;;;5069128;28;20098;-72
2021/06/14 09:32:56;;;;;;;4.15;3.05;;;27.00;56.40;;;;;;5071474;28;20037;-74
2021/06/14 09:35:25;;;;;;;5.63;2.83;;;27.60;55.40;;;;;;5057630;28;20041;-72
2021/06/14 09:37:57;;;;;;;4.82;3.20;;;27.70;54.70;;;;;;5059799;28;20458;-71
2021/06/14 09:40:32;;;;;;;3.10;2.53;;;27.40;55.50;;;;;;5072472;28;20048;-72
2021/06/14 09:43:00;;;;;;;4.50;3.00;;;27.10;54.90;;;;;;5072739;28;20091;-72
2021/06/14 09:45:26;;;;;;;5.05;3.40;;;26.90;55.10;;;;;;5072959;28;20064;-73
2021/06/14 09:47:54;;;;;;;4.22;3.45;;;26.90;56.20;;;;;;5073005;28;20080;-72
2021/06/14 09:50:27;;;;;;;5.32;2.95;;;27.60;54.90;;;;;;5072889;28;20044;-71
2021/06/14 09:53:11;;;;;;;5.07;3.13;;;28.40;53.90;;;;;;5073202;28;20511;-72
2021/06/14 09:55:39;;;;;;;3.50;2.88;;;28.70;51.70;;;;;;5071682;28;20049;-73
2021/06/14 09:58:21;;;;;;;7.40;2.92;;;27.80;52.60;;;;;;5073507;28;20082;-72
2021/06/14 10:00:53;;;;;;;5.60;3.00;;;28.10;52.80;;;;;;5072835;28;20438;-72
2021/06/14 10:03:21;;;;;;;5.72;2.33;;;27.70;52.50;;;;;;5073084;28;20454;-72
2021/06/14 10:05:50;;;;;;;4.28;2.25;;;27.90;53.00;;;;;;5072543;28;20044;-72
2021/06/14 10:08:32;;;;;;;7.20;2.85;;;28.60;51.80;;;;;;5072991;28;20056;-71
2021/06/14 10:11:08;;;;;;;4.07;3.08;;;29.00;50.80;;;;;;5071879;28;20044;-71
2021/06/14 10:13:37;;;;;;;5.25;3.00;;;28.80;51.10;;;;;;5073905;28;20045;-71
2021/06/14 10:16:06;;;;;;;5.00;2.78;;;29.20;51.30;;;;;;5072472;28;20044;-72
2021/06/14 10:18:36;;;;;;;3.42;2.67;;;29.10;49.80;;;;;;5072899;28;20052;-72
2021/06/14 10:21:08;;;;;;;3.65;2.42;;;29.10;51.00;;;;;;5072873;28;20488;-72
2021/06/14 10:23:36;;;;;;;6.45;2.70;;;29.70;49.50;;;;;;5072539;28;20558;-71
2021/06/14 10:26:04;;;;;;;7.75;4.68;;;28.80;50.20;;;;;;5072521;28;20087;-71
2021/06/14 10:28:31;;;;;;;4.18;3.22;;;30.50;50.60;;;;;;5072889;28;20072;-71
2021/06/14 10:30:58;;;;;;;3.30;2.45;;;31.00;48.10;;;;;;5072617;28;20545;-72
2021/06/14 10:33:27;;;;;;;3.55;2.80;;;30.30;47.40;;;;;;5072911;28;20041;-72
2021/06/14 10:35:55;;;;;;;5.93;3.63;;;30.60;48.60;;;;;;5072256;28;20099;-72
2021/06/14 10:38:22;;;;;;;4.47;2.80;;;31.40;48.00;;;;;;5072764;28;20041;-72
2021/06/14 10:40:53;;;;;;;3.33;2.90;;;30.30;48.60;;;;;;5072544;28;20088;-72
2021/06/14 10:43:25;;;;;;;2.58;2.30;;;29.80;48.80;;;;;;5072630;28;20087;-72
2021/06/14 10:45:52;;;;;;;9.18;5.22;;;29.80;48.10;;;;;;5072354;28;20044;-72
2021/06/14 10:48:25;;;;;;;5.60;2.40;;;30.50;48.50;;;;;;5072740;28;20201;-71
2021/06/14 10:50:52;;;;;;;5.70;3.22;;;31.00;47.00;;;;;;5072530;28;20048;-72
2021/06/14 10:53:24;;;;;;;5.75;2.88;;;31.10;46.10;;;;;;5072885;28;20041;-72
2021/06/14 10:55:52;;;;;;;4.07;2.75;;;31.60;45.60;;;;;;5072368;28;20071;-73
2021/06/14 10:58:20;;;;;;;6.28;2.75;;;31.80;45.80;;;;;;5072614;28;20106;-72
2021/06/14 11:00:59;;;;;;;4.15;3.15;;;30.10;46.40;;;;;;5067215;28;20048;-74
2021/06/14 11:03:41;;;;;;;5.10;2.78;;;30.70;47.10;;;;;;5072354;28;20409;-76
2021/06/14 11:06:22;;;;;;;4.32;2.83;;;31.50;45.80;;;;;;5073406;28;20502;-74
2021/06/14 11:09:05;;;;;;;4.32;2.67;;;31.80;44.90;;;;;;5058780;28;20052;-74
2021/06/14 11:11:44;;;;;;;4.05;3.25;;;31.40;46.10;;;;;;5052154;28;20087;-73
2021/06/14 11:14:11;;;;;;;4.10;2.90;;;31.20;46.60;;;;;;5070940;28;20126;-74
2021/06/14 11:16:39;;;;;;;4.65;2.08;;;31.20;45.50;;;;;;5071785;28;20087;-74
2021/06/14 11:19:08;;;;;;;3.17;2.50;;;31.50;45.40;;;;;;5066375;28;20036;-70
2021/06/14 11:21:35;;;;;;;5.68;3.72;;;31.20;45.70;;;;;;5073030;28;20098;-70
2021/06/14 11:24:07;;;;;;;2.15;1.75;;;31.30;45.90;;;;;;5057042;28;20040;-73
2021/06/14 11:26:35;;;;;;;4.22;2.65;;;31.40;46.10;;;;;;5062437;28;20044;-69
2021/06/14 11:29:14;;;;;;;6.43;3.53;;;32.50;46.10;;;;;;5075207;28;20044;-69
2021/06/14 11:31:41;;;;;;;3.40;2.22;;;32.90;43.80;;;;;;5075286;28;20500;-68
2021/06/14 11:34:19;;;;;;;5.28;1.90;;;32.30;43.40;;;;;;5075486;28;20047;-70
2021/06/14 11:36:55;;;;;;;3.83;2.25;;;31.50;44.60;;;;;;5074418;28;20048;-70
2021/06/14 11:39:22;;;;;;;2.92;1.98;;;31.60;45.90;;;;;;5075026;28;20083;-70
2021/06/14 11:41:52;;;;;;;4.43;3.45;;;30.30;45.80;;;;;;5074912;28;20045;-70
2021/06/14 11:44:21;;;;;;;4.47;2.25;;;30.20;46.80;;;;;;5074618;28;20083;-70
2021/06/14 11:46:53;;;;;;;4.65;2.22;;;30.00;47.60;;;;;;5074871;28;20143;-76
2021/06/14 11:49:22;;;;;;;4.95;2.45;;;30.40;47.50;;;;;;5076228;28;20044;-75
2021/06/14 11:51:49;;;;;;;5.20;3.25;;;30.30;46.90;;;;;;5064441;28;20051;-74
2021/06/14 11:54:16;;;;;;;3.55;2.28;;;31.10;45.80;;;;;;5075146;28;20044;-71
2021/06/14 11:56:43;;;;;;;2.28;2.08;;;31.00;45.80;;;;;;5074506;28;20492;-71
2021/06/14 11:59:12;;;;;;;3.67;2.50;;;30.50;46.40;;;;;;5074452;28;20072;-72
2021/06/14 12:01:40;;;;;;;2.58;2.20;;;30.70;46.60;;;;;;5074356;28;20075;-72
2021/06/14 12:04:08;;;;;;;4.45;2.13;;;30.80;45.70;;;;;;5074725;28;20439;-71
2021/06/14 12:06:43;;;;;;;3.28;2.50;;;30.30;46.30;;;;;;5074585;28;20053;-70
2021/06/14 12:09:10;;;;;;;3.47;1.98;;;30.40;47.30;;;;;;5075055;28;20057;-72
2021/06/14 12:11:37;;;;;;;4.03;2.08;;;30.90;46.00;;;;;;5074734;28;20045;-72
2021/06/14 12:14:12;;;;;;;2.22;2.00;;;30.80;45.90;;;;;;5074237;28;20051;-72
2021/06/14 12:16:39;;;;;;;5.35;2.92;;;30.10;46.90;;;;;;5074071;28;20076;-71
2021/06/14 12:19:05;;;;;;;5.03;2.22;;;29.80;48.10;;;;;;5064770;28;20528;-70
2021/06/14 12:21:32;;;;;;;2.95;2.50;;;30.10;47.00;;;;;;5055420;28;20517;-72
2021/06/14 12:23:59;;;;;;;3.90;1.90;;;30.20;47.00;;;;;;5058430;28;20079;-71
2021/06/14 12:26:38;;;;;;;4.78;3.10;;;30.50;45.90;;;;;;5073872;28;20072;-71
2021/06/14 12:29:05;;;;;;;3.35;2.55;;;31.10;45.90;;;;;;5074599;28;20084;-69
2021/06/14 12:31:33;;;;;;;3.65;2.60;;;31.20;44.50;;;;;;5073920;28;20048;-69
2021/06/14 12:33:59;;;;;;;2.10;1.90;;;31.50;45.90;;;;;;5073648;28;20068;-71
2021/06/14 12:36:26;;;;;;;2.40;1.95;;;31.50;44.80;;;;;;5073781;28;20045;-71
2021/06/14 12:38:54;;;;;;;3.53;1.73;;;31.30;45.00;;;;;;5074819;28;20080;-71
2021/06/14 12:41:22;;;;;;;4.40;2.13;;;31.30;44.20;;;;;;5061383;28;20049;-71
2021/06/14 12:43:49;;;;;;;2.83;2.17;;;31.20;43.90;;;;;;5055890;28;20041;-73
2021/06/14 12:46:16;;;;;;;2.25;1.75;;;30.50;45.00;;;;;;5066867;28;20071;-72
2021/06/14 12:48:49;;;;;;;2.83;1.90;;;30.40;45.00;;;;;;5076758;28;20492;-72
2021/06/14 12:51:17;;;;;;;2.60;1.90;;;30.20;45.50;;;;;;5064663;28;20130;-72
2021/06/14 12:53:43;;;;;;;3.78;1.70;;;30.60;45.10;;;;;;5054714;28;20077;-72
2021/06/14 12:56:13;;;;;;;2.90;2.00;;;30.90;44.90;;;;;;5054275;28;20076;-71
2021/06/14 12:58:41;;;;;;;2.70;2.10;;;30.80;44.70;;;;;;5054167;28;20492;-72
2021/06/14 13:01:09;;;;;;;2.92;2.60;;;30.50;45.60;;;;;;5071673;28;20557;-71
2021/06/14 13:03:38;;;;;;;2.33;2.08;;;29.90;45.80;;;;;;5074528;28;20052;-73
2021/06/14 13:06:07;;;;;;;4.82;2.08;;;30.60;45.60;;;;;;5073941;28;20086;-72
2021/06/14 13:08:36;;;;;;;2.58;1.52;;;30.80;45.30;;;;;;5074642;28;20064;-72